Time;durP1;ratioP1;P1;durP2;ratioP2;P2;SDS_P1;SDS_P2;PMS_P1;PMS_P2;Temp;Humidity;BMP_temperature;BMP_pressure;BME280_temperature;BME280_humidity;BME280_pressure;Samples;Min_cycle;Max_cycle;Signal;HPM_P1;HPM_P2
2023/03/03 00:01:08;;;;;;;1.80;1.60;;;;;;;5.95;55.97;97979.22;5059853;28;20498;-66
2023/03/03 00:03:33;;;;;;;4.73;1.77;;;;;;;5.91;56.65;97963.91;5042483;28;20035;-66
2023/03/03 00:05:59;;;;;;;3.97;1.50;;;;;;;5.88;57.58;97958.97;5059525;28;20047;-67
2023/03/03 00:08:25;;;;;;;3.87;1.80;;;;;;;5.92;58.20;97944.50;5053798;28;20073;-68
2023/03/03 00:10:51;;;;;;;3.80;1.50;;;;;;;5.78;58.45;97935.44;5062562;28;20158;-67
2023/03/03 00:13:23;;;;;;;4.97;1.27;;;;;;;6.07;59.17;97941.00;5045988;28;20229;-66
2023/03/03 00:15:49;;;;;;;5.13;1.40;;;;;;;5.84;58.71;97929.53;5062535;28;20058;-67
2023/03/03 00:18:21;;;;;;;2.90;1.37;;;;;;;6.26;59.03;97926.53;5078756;28;20043;-66
2023/03/03 00:20:51;;;;;;;6.03;1.60;;;;;;;6.25;58.79;97923.09;5112922;28;20054;-67
2023/03/03 00:23:36;;;;;;;3.20;1.50;;;;;;;6.31;58.61;97909.22;5062397;28;20139;-66
2023/03/03 00:26:14;;;;;;;4.40;1.53;;;;;;;6.40;58.44;97921.38;5045803;28;20047;-66
2023/03/03 00:28:46;;;;;;;1.40;1.30;;;;;;;6.41;58.24;97927.47;5079635;28;20051;-68
2023/03/03 00:31:28;;;;;;;8.00;1.60;;;;;;;6.58;58.19;97921.09;5078873;28;20062;-69
2023/03/03 00:33:54;;;;;;;7.93;2.03;;;;;;;6.26;57.83;97918.63;5095818;28;20134;-67
2023/03/03 00:36:27;;;;;;;2.23;1.50;;;;;;;6.53;58.11;97923.44;5045494;28;20040;-66
2023/03/03 00:38:54;;;;;;;4.03;1.77;;;;;;;6.26;57.71;97911.56;5078926;28;20039;-66
2023/03/03 00:41:23;;;;;;;4.27;1.57;;;;;;;6.20;58.77;97912.25;5061874;28;20159;-66
2023/03/03 00:43:50;;;;;;;7.43;1.83;;;;;;;6.18;58.60;97916.06;5062168;28;20056;-67
2023/03/03 00:46:22;;;;;;;7.80;1.70;;;;;;;6.58;58.43;97911.38;5078909;28;20048;-67
2023/03/03 00:48:50;;;;;;;3.03;1.57;;;;;;;6.27;58.15;97923.72;5062172;28;20075;-67
2023/03/03 00:51:22;;;;;;;3.03;1.40;;;;;;;6.46;58.93;97904.03;5062024;28;20048;-66
2023/03/03 00:53:48;;;;;;;3.87;1.33;;;;;;;6.21;58.45;97890.16;5095293;28;20047;-67
2023/03/03 00:56:14;;;;;;;5.50;1.53;;;;;;;6.12;58.71;97885.13;5044845;28;20051;-67
2023/03/03 00:58:40;;;;;;;4.73;1.60;;;;;;;5.85;59.21;97886.41;5061483;28;20066;-67
2023/03/03 01:01:06;;;;;;;3.20;1.50;;;;;;;5.79;60.29;97887.06;5060655;28;20051;-67
2023/03/03 01:03:42;;;;;;;5.17;1.80;;;;;;;6.10;59.48;97882.66;5046832;28;20039;-71
2023/03/03 01:06:09;;;;;;;6.50;1.47;;;;;;;5.95;61.15;97873.81;5060875;28;20546;-67
2023/03/03 01:08:35;;;;;;;4.20;1.67;;;;;;;5.95;61.39;97873.03;5044000;28;20036;-66
2023/03/03 01:11:28;;;;;;;4.70;1.63;;;;;;;6.51;60.98;97873.50;5044107;28;20138;-66
2023/03/03 01:13:54;;;;;;;4.60;1.80;;;;;;;6.00;61.24;97866.22;5057354;28;20061;-67
2023/03/03 01:16:20;;;;;;;8.77;2.00;;;;;;;6.34;61.98;97877.25;5060597;28;20126;-67
2023/03/03 01:18:47;;;;;;;8.27;2.10;;;;;;;6.02;63.41;97869.53;5060931;28;20456;-68
2023/03/03 01:21:13;;;;;;;4.83;1.97;;;;;;;5.82;64.56;97875.38;5060277;28;20075;-66
2023/03/03 01:23:39;;;;;;;8.63;2.40;;;;;;;6.21;65.18;97873.53;5044107;28;20047;-68
2023/03/03 01:26:07;;;;;;;8.07;2.03;;;;;;;6.20;65.05;97863.97;5060319;28;20043;-67
2023/03/03 01:28:33;;;;;;;6.87;2.37;;;;;;;6.29;65.37;97866.41;5077002;28;20125;-66
2023/03/03 01:31:03;;;;;;;5.33;2.07;;;;;;;6.42;66.62;97860.56;5076171;28;20126;-66
2023/03/03 01:33:30;;;;;;;6.82;2.17;;;;;;;6.39;65.72;97853.81;5060672;28;20600;-67
2023/03/03 01:35:56;;;;;;;4.57;2.07;;;;;;;6.00;65.73;97873.31;5076975;28;20364;-67
2023/03/03 01:38:22;;;;;;;8.07;1.97;;;;;;;5.88;67.28;97857.06;5077136;28;20487;-66
2023/03/03 01:40:53;;;;;;;7.17;2.47;;;;;;;6.04;72.59;97862.25;5093410;28;20073;-67
2023/03/03 01:43:19;;;;;;;9.30;2.50;;;;;;;6.08;69.61;97862.72;5093630;28;20104;-66
2023/03/03 01:45:48;;;;;;;8.23;2.70;;;;;;;6.26;68.92;97864.09;5043482;28;20040;-66
2023/03/03 01:48:18;;;;;;;11.90;2.80;;;;;;;6.61;68.51;97863.53;5093465;28;20066;-67
2023/03/03 01:50:50;;;;;;;9.10;2.80;;;;;;;6.54;68.07;97867.06;5060142;28;20036;-66
2023/03/03 01:53:22;;;;;;;14.63;3.07;;;;;;;6.71;68.06;97852.75;5059957;28;20062;-66
2023/03/03 01:55:51;;;;;;;9.33;2.83;;;;;;;6.28;67.58;97866.56;5030008;28;1319248;-67
2023/03/03 01:58:25;;;;;;;10.90;3.27;;;;;;;6.53;68.59;97850.41;5060771;28;20040;-66
2023/03/03 02:00:57;;;;;;;16.43;3.00;;;;;;;6.77;68.36;97858.16;5049913;28;20503;-66
2023/03/03 02:03:23;;;;;;;10.47;2.87;;;;;;;6.54;66.99;97859.16;5020995;28;20131;-66
2023/03/03 02:05:52;;;;;;;9.30;3.10;;;;;;;6.79;67.54;97848.25;5003961;28;20049;-66
2023/03/03 02:08:21;;;;;;;8.47;3.00;;;;;;;6.87;67.00;97850.78;5020949;28;20125;-66
2023/03/03 02:10:47;;;;;;;8.37;2.73;;;;;;;6.71;66.43;97853.59;5039583;28;20044;-66
2023/03/03 02:13:14;;;;;;;13.10;3.17;;;;;;;6.44;65.83;97848.81;5037065;28;20051;-66
2023/03/03 02:15:40;;;;;;;15.97;2.80;;;;;;;6.35;66.17;97847.25;5037672;28;20229;-65
2023/03/03 02:18:14;;;;;;;8.77;2.73;;;;;;;6.75;66.39;97846.13;5020647;28;20156;-65
2023/03/03 02:21:09;;;;;;;9.73;2.60;;;;;;;6.89;66.57;97832.97;5042267;28;20036;-66
2023/03/03 02:24:02;;;;;;;14.50;2.40;;;;;;;6.75;65.47;97831.13;5040597;28;20052;-66
2023/03/03 02:26:30;;;;;;;5.87;2.37;;;;;;;6.81;65.02;97840.16;5073216;28;20036;-66
2023/03/03 02:29:02;;;;;;;13.07;2.97;;;;;;;6.57;64.85;97829.78;5041612;28;20046;-66
2023/03/03 02:31:30;;;;;;;7.87;2.70;;;;;;;6.88;64.98;97815.50;5053716;28;20372;-66
2023/03/03 02:33:56;;;;;;;13.17;2.67;;;;;;;6.45;64.17;97818.84;5023793;28;20368;-66
2023/03/03 02:36:25;;;;;;;10.13;2.37;;;;;;;6.55;63.97;97819.41;5023780;28;20040;-67
2023/03/03 02:38:52;;;;;;;10.17;2.97;;;;;;;6.41;63.99;97825.44;5057266;28;20094;-66
2023/03/03 02:41:36;;;;;;;13.93;2.40;;;;;;;6.48;63.87;97809.75;5054289;28;20059;-66
2023/03/03 02:44:18;;;;;;;12.00;2.30;;;;;;;6.70;64.07;97801.81;5047168;28;20036;-68
2023/03/03 02:46:46;;;;;;;14.48;2.70;;;;;;;6.71;64.11;97814.00;5053137;28;20131;-66
2023/03/03 02:49:14;;;;;;;9.73;2.60;;;;;;;6.84;64.07;97793.09;5036934;28;20059;-71
2023/03/03 02:51:41;;;;;;;9.30;2.37;;;;;;;6.69;63.17;97810.72;5044077;28;20040;-64
2023/03/03 02:54:08;;;;;;;7.77;2.40;;;;;;;6.54;63.64;97803.78;5036769;28;20068;-64
2023/03/03 02:56:35;;;;;;;9.07;2.37;;;;;;;6.62;64.45;97794.00;5020388;28;20052;-64
2023/03/03 02:59:02;;;;;;;13.17;2.63;;;;;;;6.42;63.39;97787.56;5020218;28;20083;-66
2023/03/03 03:01:35;;;;;;;8.10;2.70;;;;;;;6.62;64.66;97793.16;5037354;28;20044;-65
2023/03/03 03:04:16;;;;;;;10.33;2.30;;;;;;;7.18;64.20;97789.97;5054378;28;20059;-65
2023/03/03 03:06:45;;;;;;;10.07;2.47;;;;;;;6.61;63.20;97797.59;5057358;28;20134;-64
2023/03/03 03:09:14;;;;;;;11.10;2.70;;;;;;;6.77;64.67;97789.56;5057530;28;20087;-65
2023/03/03 03:11:41;;;;;;;9.57;2.53;;;;;;;6.77;64.08;97786.09;5040884;28;20428;-65
2023/03/03 03:14:09;;;;;;;9.13;2.80;;;;;;;6.73;64.47;97780.34;5040801;28;20047;-65
2023/03/03 03:16:35;;;;;;;12.53;2.83;;;;;;;6.24;64.84;97779.09;5073973;28;20040;-65
2023/03/03 03:19:03;;;;;;;7.30;2.30;;;;;;;6.28;69.00;97767.25;5056877;28;20192;-65
2023/03/03 03:21:30;;;;;;;11.90;2.20;;;;;;;6.23;68.83;97774.00;5073786;28;20073;-64
2023/03/03 03:23:57;;;;;;;8.93;2.50;;;;;;;6.47;68.67;97779.13;5074027;28;20047;-63
2023/03/03 03:26:23;;;;;;;7.93;2.20;;;;;;;6.66;67.78;97768.88;5040561;28;20361;-64
2023/03/03 03:28:52;;;;;;;12.17;2.50;;;;;;;6.77;67.23;97779.00;5040617;28;20051;-62
2023/03/03 03:31:20;;;;;;;6.07;2.00;;;;;;;6.92;67.11;97778.22;5040531;28;20089;-63
2023/03/03 03:33:47;;;;;;;12.67;2.80;;;;;;;6.62;66.61;97772.88;5040538;28;20051;-65
2023/03/03 03:36:15;;;;;;;21.37;3.20;;;;;;;6.66;66.87;97771.53;5073722;28;20040;-65
2023/03/03 03:38:41;;;;;;;12.60;2.93;;;;;;;6.73;66.69;97769.00;5040827;28;20094;-65
2023/03/03 03:41:11;;;;;;;17.73;3.30;;;;;;;6.58;65.80;97774.22;5056701;28;20052;-65
2023/03/03 03:43:37;;;;;;;6.57;2.57;;;;;;;6.77;66.52;97763.19;5040643;28;20468;-64
2023/03/03 03:46:06;;;;;;;9.10;2.97;;;;;;;6.62;65.64;97762.34;5056846;28;20444;-64
2023/03/03 03:48:33;;;;;;;11.17;2.53;;;;;;;6.84;66.41;97766.72;5040307;28;20052;-64
2023/03/03 03:51:00;;;;;;;10.90;3.20;;;;;;;6.42;65.65;97773.56;5040345;28;20036;-65
2023/03/03 03:53:27;;;;;;;13.20;4.37;;;;;;;6.64;66.63;97770.06;5057094;28;20173;-64
2023/03/03 03:55:53;;;;;;;16.93;3.37;;;;;;;6.51;66.09;97768.03;5027228;28;20427;-61
2023/03/03 03:58:19;;;;;;;12.10;3.20;;;;;;;6.62;66.30;97769.44;5043764;28;20506;-63
2023/03/03 04:00:51;;;;;;;10.60;2.77;;;;;;;6.53;66.43;97759.94;5076659;28;20047;-61
2023/03/03 04:03:18;;;;;;;14.33;2.73;;;;;;;6.67;66.10;97759.97;5060758;28;20051;-61
2023/03/03 04:05:48;;;;;;;13.50;3.00;;;;;;;6.74;65.74;97755.63;5059360;28;20591;-64
2023/03/03 04:08:14;;;;;;;8.67;2.50;;;;;;;6.82;66.04;97755.56;5043909;28;20620;-62
2023/03/03 04:10:41;;;;;;;8.83;2.37;;;;;;;6.47;65.17;97744.84;5044457;28;20036;-62
2023/03/03 04:13:07;;;;;;;9.17;2.83;;;;;;;6.39;66.10;97742.28;5043855;28;20506;-65
2023/03/03 04:15:34;;;;;;;5.57;2.63;;;;;;;6.52;66.00;97738.03;5043530;28;20052;-64
2023/03/03 04:18:01;;;;;;;12.83;3.00;;;;;;;6.57;66.05;97738.31;5076788;28;20566;-64
2023/03/03 04:20:27;;;;;;;11.90;3.07;;;;;;;6.51;66.18;97732.94;5027244;28;20040;-64
2023/03/03 04:22:55;;;;;;;11.37;2.70;;;;;;;6.50;66.61;97726.03;5059872;28;20039;-65
2023/03/03 04:25:22;;;;;;;12.90;2.77;;;;;;;6.58;66.19;97739.94;5043935;28;20062;-65
2023/03/03 04:27:50;;;;;;;6.13;2.20;;;;;;;6.65;65.48;97734.78;5027193;28;20036;-64
2023/03/03 04:30:18;;;;;;;9.30;2.60;;;;;;;6.44;65.60;97732.00;5043828;28;20032;-65
2023/03/03 04:32:46;;;;;;;19.97;2.97;;;;;;;6.49;65.66;97741.03;5060934;28;20211;-69
2023/03/03 04:35:13;;;;;;;9.60;3.27;;;;;;;6.48;65.71;97734.13;5043620;28;20544;-64
2023/03/03 04:37:41;;;;;;;23.27;3.60;;;;;;;6.54;65.21;97733.41;5044281;28;20051;-64
2023/03/03 04:40:09;;;;;;;8.80;2.87;;;;;;;6.80;65.83;97730.34;5059763;28;20040;-65
2023/03/03 04:42:36;;;;;;;12.33;2.50;;;;;;;6.20;65.24;97732.19;5060175;28;20047;-65
2023/03/03 04:45:03;;;;;;;8.77;2.50;;;;;;;6.67;66.64;97732.78;5042918;28;20070;-66
2023/03/03 04:47:31;;;;;;;14.47;3.00;;;;;;;6.64;66.83;97717.31;5076609;28;20059;-64
2023/03/03 04:49:57;;;;;;;7.70;2.67;;;;;;;6.66;66.27;97737.25;5059597;28;20040;-64
2023/03/03 04:52:24;;;;;;;11.83;2.87;;;;;;;6.83;65.76;97732.59;5059880;28;20605;-63
2023/03/03 04:54:50;;;;;;;11.03;2.47;;;;;;;6.86;65.70;97741.00;5042752;28;20059;-64
2023/03/03 04:57:16;;;;;;;8.97;2.67;;;;;;;6.73;65.26;97746.06;5039807;28;20072;-64
2023/03/03 04:59:46;;;;;;;13.40;3.13;;;;;;;7.06;66.08;97736.00;5023351;28;20515;-65
2023/03/03 05:02:12;;;;;;;12.20;2.93;;;;;;;6.96;65.54;97747.81;5056309;28;20523;-63
2023/03/03 05:04:38;;;;;;;10.97;2.37;;;;;;;6.82;65.25;97739.72;5038168;28;20071;-61
2023/03/03 05:07:03;;;;;;;11.40;2.93;;;;;;;6.73;64.93;97745.25;5055845;28;20479;-63
2023/03/03 05:09:29;;;;;;;10.33;2.50;;;;;;;6.81;65.03;97742.53;5055904;28;20085;-62
2023/03/03 05:11:55;;;;;;;9.33;2.63;;;;;;;6.82;65.21;97752.09;5039284;28;20036;-63
2023/03/03 05:14:21;;;;;;;15.43;2.60;;;;;;;6.96;64.98;97747.81;5055828;28;20148;-64
2023/03/03 05:16:46;;;;;;;12.30;2.43;;;;;;;6.79;64.16;97737.44;5022916;28;20488;-62
2023/03/03 05:19:13;;;;;;;12.63;2.90;;;;;;;6.93;64.96;97741.91;5072078;28;20147;-63
2023/03/03 05:21:41;;;;;;;12.13;2.60;;;;;;;7.03;64.95;97744.28;5038784;28;20055;-62
2023/03/03 05:24:08;;;;;;;12.00;2.60;;;;;;;6.85;63.56;97746.44;5055981;28;20123;-64
2023/03/03 05:26:34;;;;;;;6.77;2.33;;;;;;;6.76;64.14;97743.06;5072256;28;20055;-63
2023/03/03 05:29:00;;;;;;;17.13;2.70;;;;;;;7.01;64.47;97745.47;5022249;28;20045;-63
2023/03/03 05:31:26;;;;;;;11.93;2.80;;;;;;;7.00;64.56;97741.16;5038638;28;20105;-63
2023/03/03 05:33:52;;;;;;;8.07;2.63;;;;;;;7.07;63.70;97750.00;5072934;28;20476;-62
2023/03/03 05:36:18;;;;;;;16.03;3.23;;;;;;;7.02;63.95;97747.09;5039037;28;20036;-62
2023/03/03 05:38:46;;;;;;;11.93;3.20;;;;;;;7.11;63.42;97746.00;5022288;28;20388;-64
2023/03/03 05:41:12;;;;;;;6.13;2.10;;;;;;;6.92;63.52;97752.63;5071649;28;20142;-63
2023/03/03 05:43:38;;;;;;;8.77;2.47;;;;;;;6.93;64.11;97744.53;5055282;28;20044;-63
2023/03/03 05:46:04;;;;;;;6.37;2.40;;;;;;;7.09;64.39;97754.09;5038580;28;20050;-63
2023/03/03 05:48:29;;;;;;;6.63;2.53;;;;;;;7.17;63.19;97756.66;5071625;28;20443;-63
2023/03/03 05:50:59;;;;;;;8.70;2.13;;;;;;;7.45;62.79;97749.72;5038354;28;20045;-64
2023/03/03 05:53:26;;;;;;;11.37;2.40;;;;;;;7.33;62.56;97758.28;5055110;28;20083;-64
2023/03/03 05:55:52;;;;;;;7.63;2.67;;;;;;;7.25;62.50;97753.94;5073565;28;20036;-64
2023/03/03 05:58:18;;;;;;;13.87;2.67;;;;;;;7.20;62.83;97760.75;5025599;28;20513;-62
2023/03/03 06:00:43;;;;;;;10.17;2.53;;;;;;;6.93;61.59;97758.72;5058233;28;20132;-64
2023/03/03 06:03:12;;;;;;;17.80;2.70;;;;;;;7.39;62.67;97757.56;5041824;28;20395;-63
2023/03/03 06:05:38;;;;;;;12.10;3.53;;;;;;;6.68;61.60;97764.25;5041468;28;20139;-63
2023/03/03 06:08:04;;;;;;;8.57;2.10;;;;;;;6.78;62.63;97758.72;5058032;28;20094;-63
2023/03/03 06:10:30;;;;;;;12.60;3.00;;;;;;;6.48;61.49;97768.41;5058041;28;20509;-61
2023/03/03 06:12:59;;;;;;;16.30;2.53;;;;;;;6.79;62.50;97758.56;5075122;28;20161;-61
2023/03/03 06:15:25;;;;;;;10.50;2.60;;;;;;;6.96;61.81;97750.47;5074588;28;20055;-61
2023/03/03 06:17:50;;;;;;;14.57;2.40;;;;;;;7.02;62.26;97762.91;5057985;28;20047;-59
2023/03/03 06:20:16;;;;;;;17.43;2.67;;;;;;;7.17;61.85;97774.28;5057704;28;20048;-61
2023/03/03 06:22:42;;;;;;;9.40;2.80;;;;;;;7.19;60.85;97764.38;5074521;28;20512;-61
2023/03/03 06:25:08;;;;;;;16.73;3.27;;;;;;;7.14;60.64;97758.81;5074474;28;20105;-60
2023/03/03 06:27:34;;;;;;;10.43;2.87;;;;;;;7.17;61.40;97771.66;5057739;28;20044;-62
2023/03/03 06:30:00;;;;;;;18.00;2.60;;;;;;;7.10;60.56;97755.75;5024491;28;20048;-60
2023/03/03 06:32:26;;;;;;;9.23;2.93;;;;;;;6.96;59.25;97763.66;5057856;28;20067;-62
2023/03/03 06:34:51;;;;;;;18.43;3.03;;;;;;;7.11;60.01;97770.56;5041301;28;20036;-63
2023/03/03 06:37:17;;;;;;;12.23;2.50;;;;;;;7.27;59.86;97769.59;5040918;28;20086;-63
2023/03/03 06:39:51;;;;;;;13.10;2.60;;;;;;;7.79;59.91;97778.16;5057401;28;20044;-61
2023/03/03 06:42:18;;;;;;;11.27;2.50;;;;;;;7.52;59.46;97777.03;5074189;28;20039;-62
2023/03/03 06:44:44;;;;;;;17.33;3.20;;;;;;;7.37;59.17;97780.66;5074338;28;20349;-63
2023/03/03 06:47:10;;;;;;;17.03;2.97;;;;;;;7.39;58.75;97776.03;5040819;28;20501;-63
2023/03/03 06:49:36;;;;;;;12.37;3.07;;;;;;;7.48;58.81;97780.22;5040690;28;20055;-61
2023/03/03 06:52:10;;;;;;;16.90;2.83;;;;;;;7.85;58.71;97775.63;5057443;28;20075;-63
2023/03/03 06:54:36;;;;;;;10.80;3.50;;;;;;;7.50;58.54;97776.41;5040894;28;20139;-64
2023/03/03 06:57:13;;;;;;;23.87;3.97;;;;;;;7.58;58.35;97791.34;5057252;28;20135;-64
2023/03/03 06:59:40;;;;;;;13.83;2.40;;;;;;;7.58;58.44;97778.91;5057468;28;20040;-62
2023/03/03 07:02:15;;;;;;;14.53;2.47;;;;;;;7.75;58.93;97782.19;5074263;28;20048;-63
2023/03/03 07:04:41;;;;;;;17.63;2.90;;;;;;;7.46;58.14;97783.03;5057512;28;20131;-64
2023/03/03 07:07:19;;;;;;;11.00;2.90;;;;;;;7.86;58.14;97790.44;5040583;28;20130;-62
2023/03/03 07:09:50;;;;;;;10.47;2.53;;;;;;;7.64;57.69;97790.59;5074207;28;20078;-64
2023/03/03 07:12:21;;;;;;;18.50;3.60;;;;;;;7.75;57.45;97782.19;5057488;28;20903;-64
2023/03/03 07:14:54;;;;;;;17.33;2.78;;;;;;;7.77;57.62;97778.34;5074455;28;20043;-64
2023/03/03 07:17:23;;;;;;;11.10;2.50;;;;;;;7.89;57.06;97787.44;5041387;28;20391;-64
2023/03/03 07:19:49;;;;;;;16.10;2.90;;;;;;;7.61;56.80;97791.75;5070289;28;20036;-65
2023/03/03 07:22:20;;;;;;;14.37;2.40;;;;;;;7.75;57.52;97779.56;5040482;28;20047;-64
2023/03/03 07:25:01;;;;;;;12.30;2.40;;;;;;;7.90;56.18;97788.25;5085660;28;20028;-65
2023/03/03 07:27:30;;;;;;;12.07;2.43;;;;;;;7.73;56.57;97779.75;5048267;28;20123;-64
2023/03/03 07:30:16;;;;;;;18.37;2.60;;;;;;;7.73;56.29;97784.19;5067368;28;20048;-64
2023/03/03 07:32:43;;;;;;;14.10;2.83;;;;;;;7.82;56.88;97785.72;5083501;28;20468;-65
2023/03/03 07:35:38;;;;;;;12.53;3.20;;;;;;;7.90;56.29;97775.84;5065583;28;20047;-65
2023/03/03 07:38:16;;;;;;;13.87;2.70;;;;;;;7.93;55.94;97785.25;5034644;28;20044;-64
2023/03/03 07:40:50;;;;;;;19.50;3.00;;;;;;;8.06;56.45;97791.50;5064862;28;20040;-64
2023/03/03 07:43:39;;;;;;;13.97;2.83;;;;;;;8.10;55.37;97791.94;5083519;28;20040;-65
2023/03/03 07:46:26;;;;;;;16.60;3.33;;;;;;;8.26;55.40;97792.56;5033971;28;20061;-63
2023/03/03 07:48:52;;;;;;;18.13;3.80;;;;;;;8.01;54.53;97777.22;5057099;28;20043;-64
2023/03/03 07:51:26;;;;;;;8.40;2.30;;;;;;;8.32;54.80;97794.44;5007963;28;20102;-61
2023/03/03 07:53:59;;;;;;;16.23;3.10;;;;;;;8.46;53.71;97801.50;5040820;28;20041;-62
2023/03/03 07:56:33;;;;;;;14.93;3.40;;;;;;;8.66;53.26;97792.94;5074901;28;20055;-61
2023/03/03 07:59:02;;;;;;;17.23;3.47;;;;;;;8.50;53.00;97791.38;5057274;28;20059;-64
2023/03/03 08:01:38;;;;;;;19.67;3.30;;;;;;;8.34;53.09;97799.53;5040612;28;20548;-66
2023/03/03 08:04:40;;;;;;;21.30;2.70;;;;;;;8.90;52.54;97805.75;5023918;28;20040;-63
2023/03/03 08:07:32;;;;;;;13.17;2.57;;;;;;;8.58;51.75;97815.03;4977280;28;20052;-64
2023/03/03 08:10:01;;;;;;;25.93;3.67;;;;;;;8.58;52.68;97807.09;5020148;28;20056;-67
2023/03/03 08:12:41;;;;;;;14.77;3.30;;;;;;;8.64;52.88;97793.13;5041047;28;20369;-65
2023/03/03 08:15:19;;;;;;;12.47;2.80;;;;;;;8.39;52.82;97799.81;5040326;28;20056;-64
2023/03/03 08:17:46;;;;;;;8.77;2.47;;;;;;;8.35;52.35;97795.88;5040157;28;20044;-64
2023/03/03 08:20:28;;;;;;;7.07;2.67;;;;;;;8.54;53.22;97811.97;5040124;28;20182;-61
2023/03/03 08:22:53;;;;;;;16.97;2.97;;;;;;;8.22;52.63;97798.38;5040288;28;20040;-62
2023/03/03 08:25:20;;;;;;;12.03;2.60;;;;;;;8.11;53.06;97798.88;5056476;28;20044;-61
2023/03/03 08:27:45;;;;;;;12.13;4.77;;;;;;;8.06;52.67;97807.34;5040082;28;20040;-62
2023/03/03 08:30:11;;;;;;;14.73;2.87;;;;;;;8.28;53.47;97809.06;5023311;28;20043;-64
2023/03/03 08:32:38;;;;;;;10.40;2.53;;;;;;;8.42;52.31;97810.00;5007149;28;20044;-64
2023/03/03 08:35:04;;;;;;;12.53;2.60;;;;;;;8.53;52.23;97814.78;5039903;28;20052;-63
2023/03/03 08:37:31;;;;;;;12.97;3.47;;;;;;;8.50;52.73;97802.75;5023576;28;20048;-65
2023/03/03 08:39:58;;;;;;;11.47;2.50;;;;;;;8.53;52.70;97809.50;5056506;28;20444;-61
2023/03/03 08:42:24;;;;;;;11.30;2.73;;;;;;;8.64;52.73;97810.81;5023188;28;20140;-64
2023/03/03 08:44:50;;;;;;;13.20;2.60;;;;;;;8.92;52.78;97809.81;5056190;28;20147;-63
2023/03/03 08:47:15;;;;;;;8.17;2.37;;;;;;;9.06;51.07;97808.91;5022921;28;20047;-63
2023/03/03 08:49:41;;;;;;;11.13;2.73;;;;;;;9.19;50.24;97822.28;5023237;28;20368;-64
2023/03/03 08:52:07;;;;;;;7.80;2.20;;;;;;;9.26;49.58;97823.13;5023039;28;20514;-61
2023/03/03 08:54:33;;;;;;;11.80;2.40;;;;;;;9.45;50.01;97809.19;5022963;28;20098;-63
2023/03/03 08:56:58;;;;;;;5.10;1.80;;;;;;;9.49;47.67;97820.19;5039834;28;20507;-62
2023/03/03 08:59:24;;;;;;;6.63;1.87;;;;;;;9.43;47.74;97828.94;5056213;28;20590;-64
2023/03/03 09:01:50;;;;;;;6.80;1.70;;;;;;;9.24;47.23;97803.94;5039600;28;20634;-64
2023/03/03 09:04:16;;;;;;;11.63;2.23;;;;;;;9.47;47.79;97823.03;5022960;28;20044;-64
2023/03/03 09:06:41;;;;;;;8.97;1.93;;;;;;;9.30;47.61;97823.56;5022979;28;20040;-64
2023/03/03 09:09:07;;;;;;;6.87;2.50;;;;;;;9.15;47.39;97820.19;5039207;28;20466;-65
2023/03/03 09:11:33;;;;;;;16.13;2.30;;;;;;;9.25;46.95;97831.25;5005911;28;20139;-65
2023/03/03 09:14:10;;;;;;;9.60;3.63;;;;;;;9.62;47.78;97826.41;5055557;28;20086;-64
2023/03/03 09:16:58;;;;;;;8.57;2.10;;;;;;;9.58;47.29;97821.69;5039332;28;20185;-65
2023/03/03 09:19:32;;;;;;;9.37;2.50;;;;;;;9.86;47.51;97825.06;5006045;28;20511;-65
2023/03/03 09:22:11;;;;;;;10.27;2.53;;;;;;;9.90;46.72;97815.72;5039729;28;20527;-64
2023/03/03 09:24:37;;;;;;;8.13;2.17;;;;;;;9.38;46.08;97800.38;5038890;28;20052;-64
2023/03/03 09:27:14;;;;;;;7.23;2.43;;;;;;;10.10;46.57;97821.97;5039063;28;20040;-64
2023/03/03 09:29:40;;;;;;;10.83;2.13;;;;;;;9.68;45.45;97822.97;5039005;28;20464;-61
2023/03/03 09:32:30;;;;;;;8.57;2.50;;;;;;;10.12;45.99;97818.09;5022215;28;20047;-63
2023/03/03 09:34:55;;;;;;;7.23;2.30;;;;;;;10.02;45.50;97817.59;5022011;28;20138;-64
2023/03/03 09:37:33;;;;;;;11.23;2.10;;;;;;;10.32;44.66;97826.09;5054031;28;20204;-59
2023/03/03 09:39:59;;;;;;;6.55;2.00;;;;;;;10.21;44.83;97814.22;5054649;28;20048;-61
2023/03/03 09:42:25;;;;;;;8.80;2.30;;;;;;;10.30;43.39;97796.31;5021731;28;20044;-61
2023/03/03 09:45:00;;;;;;;4.85;1.52;;;;;;;10.79;43.16;97823.34;5038313;28;20041;-62
2023/03/03 09:47:41;;;;;;;4.75;1.48;;;;;;;10.66;42.02;97818.00;5021774;28;20484;-60
2023/03/03 09:50:23;;;;;;;7.72;1.80;;;;;;;10.72;42.15;97816.34;5021659;28;20049;-63
2023/03/03 09:53:04;;;;;;;3.42;1.50;;;;;;;10.49;42.26;97829.19;5055878;28;20032;-63
2023/03/03 09:55:36;;;;;;;6.90;1.85;;;;;;;10.56;42.91;97817.59;5074810;28;20067;-63
2023/03/03 09:58:23;;;;;;;8.40;1.60;;;;;;;10.23;42.48;97808.72;5074299;28;20541;-67
2023/03/03 10:00:58;;;;;;;7.30;2.00;;;;;;;10.33;43.21;97813.66;5053690;28;20040;-65
2023/03/03 10:03:45;;;;;;;4.70;2.03;;;;;;;10.07;43.26;97809.91;5057548;28;20495;-63
2023/03/03 10:06:11;;;;;;;2.87;1.70;;;;;;;9.53;43.46;97821.47;5041402;28;20472;-63
2023/03/03 10:08:59;;;;;;;10.07;2.00;;;;;;;9.94;43.22;97815.13;5041375;28;20138;-65
2023/03/03 10:11:31;;;;;;;9.75;2.00;;;;;;;9.73;43.33;97815.22;5074250;28;20112;-63
2023/03/03 10:14:24;;;;;;;9.07;2.17;;;;;;;10.29;43.21;97809.78;5040835;28;20040;-64
2023/03/03 10:16:53;;;;;;;4.43;1.95;;;;;;;9.98;45.49;97805.75;5040108;28;20086;-64
2023/03/03 10:19:27;;;;;;;7.32;2.33;;;;;;;10.74;43.04;97812.50;5041176;28;20135;-64
2023/03/03 10:22:24;;;;;;;6.15;2.08;;;;;;;11.06;41.90;97813.50;5074210;28;20039;-64
2023/03/03 10:24:59;;;;;;;7.25;2.15;;;;;;;11.25;41.30;97815.34;5041038;28;20109;-64
2023/03/03 10:27:36;;;;;;;5.53;1.58;;;;;;;11.31;40.84;97803.88;5041015;28;20090;-65
2023/03/03 10:30:17;;;;;;;4.20;1.50;;;;;;;11.21;40.66;97804.31;5058207;28;20044;-64
2023/03/03 10:32:50;;;;;;;4.60;1.70;;;;;;;10.45;40.76;97802.25;5057765;28;20043;-65
2023/03/03 10:35:33;;;;;;;7.32;1.90;;;;;;;10.63;41.34;97812.25;5057502;28;20466;-64
2023/03/03 10:38:37;;;;;;;4.43;1.85;;;;;;;10.65;41.78;97810.22;5041237;28;20047;-64
2023/03/03 10:41:24;;;;;;;4.18;1.95;;;;;;;10.38;41.48;97787.34;5057567;28;20051;-64
2023/03/03 10:44:17;;;;;;;5.15;1.70;;;;;;;10.69;41.45;97812.28;5057355;28;20044;-65
2023/03/03 10:46:49;;;;;;;5.50;1.73;;;;;;;10.59;41.44;97811.88;5057759;28;20050;-65
2023/03/03 10:49:19;;;;;;;4.03;1.70;;;;;;;10.83;41.21;97818.41;5041080;28;20494;-64
2023/03/03 10:51:48;;;;;;;6.22;1.83;;;;;;;10.90;40.64;97816.59;5040940;28;20047;-64
2023/03/03 10:54:17;;;;;;;8.50;2.90;;;;;;;11.21;39.73;97809.63;5040814;28;20051;-64
2023/03/03 10:56:54;;;;;;;7.75;3.22;;;;;;;11.70;38.46;97825.91;5047676;28;20483;-65
2023/03/03 10:59:44;;;;;;;10.00;2.67;;;;;;;12.13;37.70;97820.84;5057062;28;20044;-65
2023/03/03 11:02:15;;;;;;;5.93;1.80;;;;;;;11.65;38.28;97799.13;5041483;28;20044;-64
2023/03/03 11:05:12;;;;;;;10.30;2.55;;;;;;;11.70;38.75;97811.81;5078319;28;20044;-65
2023/03/03 11:07:43;;;;;;;4.63;2.10;;;;;;;11.13;39.10;97812.47;5047235;28;20479;-64
2023/03/03 11:10:33;;;;;;;4.63;2.30;;;;;;;11.46;39.17;97815.09;5061432;28;20166;-64
2023/03/03 11:13:12;;;;;;;5.93;1.90;;;;;;;10.96;39.54;97819.22;5061340;28;20146;-65
2023/03/03 11:15:57;;;;;;;4.30;1.92;;;;;;;10.88;39.09;97827.41;5044491;28;20051;-65
2023/03/03 11:18:35;;;;;;;6.80;2.13;;;;;;;10.55;39.97;97783.28;5060880;28;20051;-64
2023/03/03 11:21:19;;;;;;;5.97;1.67;;;;;;;10.76;39.67;97822.91;5061233;28;20067;-64
2023/03/03 11:23:51;;;;;;;5.70;1.70;;;;;;;11.16;39.70;97813.94;5060919;28;20062;-64
2023/03/03 11:26:34;;;;;;;5.63;2.15;;;;;;;11.26;39.58;97819.63;5027882;28;20442;-64
2023/03/03 11:29:08;;;;;;;8.48;1.90;;;;;;;11.42;38.98;97824.53;5028064;28;20060;-64
2023/03/03 11:31:48;;;;;;;6.63;1.75;;;;;;;11.36;38.32;97817.38;5061033;28;20130;-66
2023/03/03 11:34:44;;;;;;;5.90;1.88;;;;;;;11.51;37.87;97828.59;5061293;28;20537;-64
2023/03/03 11:37:20;;;;;;;4.53;1.50;;;;;;;11.37;38.30;97819.84;5060611;28;20450;-64
2023/03/03 11:39:48;;;;;;;6.25;1.75;;;;;;;11.13;38.03;97827.63;5060683;28;20395;-65
2023/03/03 11:42:41;;;;;;;5.88;1.92;;;;;;;11.20;38.19;97815.97;5060605;28;20046;-64
2023/03/03 11:45:17;;;;;;;5.15;2.03;;;;;;;11.04;38.26;97823.53;5043777;28;20051;-65
2023/03/03 11:47:54;;;;;;;5.47;1.98;;;;;;;10.54;38.34;97806.34;5059323;28;20484;-64
2023/03/03 11:50:35;;;;;;;8.88;2.08;;;;;;;10.90;38.62;97816.59;5027432;28;20071;-65
2023/03/03 11:53:22;;;;;;;5.55;1.92;;;;;;;10.93;39.03;97818.84;5077223;28;20036;-64
2023/03/03 11:55:53;;;;;;;5.10;2.45;;;;;;;10.76;39.24;97820.25;5060174;28;20047;-64